createdAt,value
2022-12-09T00:00:20.143Z,8.50
2022-12-09T00:03:08.572Z,8.90
2022-12-09T00:05:40.583Z,9.60
2022-12-09T00:08:10.359Z,9.73
2022-12-09T00:10:39.120Z,9.87
2022-12-09T00:13:07.360Z,11.30
2022-12-09T00:15:36.199Z,10.37
2022-12-09T00:18:06.245Z,10.37
2022-12-09T00:20:34.833Z,10.30
2022-12-09T00:23:03.358Z,10.63
2022-12-09T00:25:33.415Z,10.70
2022-12-09T00:28:01.729Z,11.20
2022-12-09T00:30:30.609Z,11.33
2022-12-09T00:32:59.505Z,10.80
2022-12-09T00:35:28.467Z,10.00
2022-12-09T00:37:56.769Z,12.10
2022-12-09T00:40:25.535Z,12.10
2022-12-09T00:42:55.236Z,10.10
2022-12-09T00:45:24.079Z,11.90
2022-12-09T00:47:53.138Z,12.97
2022-12-09T00:50:21.809Z,11.37
2022-12-09T00:52:50.238Z,11.33
2022-12-09T00:55:19.432Z,11.00
2022-12-09T00:57:48.290Z,11.23
2022-12-09T01:00:19.820Z,11.83
2022-12-09T01:02:48.443Z,11.77
2022-12-09T01:05:17.383Z,12.33
2022-12-09T01:07:46.141Z,11.77
2022-12-09T01:10:14.653Z,11.77
2022-12-09T01:12:43.296Z,11.83
2022-12-09T01:15:12.343Z,10.03
2022-12-09T01:17:42.260Z,11.60
2022-12-09T01:20:11.718Z,11.53
2022-12-09T01:22:40.785Z,12.77
2022-12-09T01:25:10.033Z,13.37
2022-12-09T01:27:38.651Z,11.77
2022-12-09T01:30:09.340Z,11.47
2022-12-09T01:32:38.128Z,12.60
2022-12-09T01:35:09.804Z,11.80
2022-12-09T01:37:39.520Z,13.53
2022-12-09T01:40:15.533Z,12.23
2022-12-09T01:42:44.106Z,12.80
2022-12-09T01:45:42.354Z,11.47
2022-12-09T01:48:14.261Z,13.00
2022-12-09T01:50:48.872Z,13.33
2022-12-09T01:53:19.802Z,11.23
2022-12-09T01:55:49.437Z,12.20
2022-12-09T01:58:18.998Z,12.83
2022-12-09T02:00:48.141Z,11.77
2022-12-09T02:03:16.785Z,11.50
2022-12-09T02:05:47.408Z,12.57
2022-12-09T02:08:18.728Z,11.93
2022-12-09T02:10:57.331Z,12.87
2022-12-09T02:13:31.300Z,12.63
2022-12-09T02:16:03.178Z,12.83
2022-12-09T02:18:42.150Z,12.90
2022-12-09T02:21:16.556Z,13.57
2022-12-09T02:23:52.335Z,11.93
2022-12-09T02:26:26.696Z,12.83
2022-12-09T02:29:22.942Z,12.73
2022-12-09T02:32:17.122Z,13.57
2022-12-09T02:34:52.484Z,13.60
2022-12-09T02:37:25.289Z,13.07
2022-12-09T02:39:55.194Z,13.27
2022-12-09T02:42:28.687Z,12.53
2022-12-09T02:44:59.518Z,12.87
2022-12-09T02:47:31.885Z,14.57
2022-12-09T02:50:06.021Z,13.03
2022-12-09T02:52:36.972Z,13.23
2022-12-09T02:55:09.664Z,13.77
2022-12-09T02:57:40.189Z,13.37
2022-12-09T03:00:10.354Z,12.50
2022-12-09T03:02:43.940Z,13.20
2022-12-09T03:05:22.092Z,12.87
2022-12-09T03:08:00.452Z,12.67
2022-12-09T03:10:34.333Z,13.03
2022-12-09T03:13:07.019Z,13.20
2022-12-09T03:15:38.875Z,13.40
2022-12-09T03:18:12.602Z,12.60
2022-12-09T03:20:44.237Z,13.13
2022-12-09T03:23:16.639Z,12.77
2022-12-09T03:25:48.258Z,13.90
2022-12-09T03:28:21.875Z,14.27
2022-12-09T03:30:51.009Z,13.80
2022-12-09T03:33:22.015Z,14.83
2022-12-09T03:35:55.392Z,14.53
2022-12-09T03:38:26.513Z,13.60
2022-12-09T03:41:04.080Z,13.40
2022-12-09T03:43:37.421Z,12.70
2022-12-09T03:46:06.469Z,13.10
2022-12-09T03:48:35.689Z,13.40
2022-12-09T03:51:11.733Z,12.70
2022-12-09T03:53:45.560Z,13.30
2022-12-09T03:56:19.007Z,13.10
2022-12-09T03:58:49.763Z,12.37
2022-12-09T04:01:19.098Z,12.83
2022-12-09T04:03:50.835Z,12.70
2022-12-09T04:06:20.839Z,13.60
2022-12-09T04:08:49.533Z,13.80
2022-12-09T04:11:18.421Z,11.97
2022-12-09T04:13:47.412Z,12.00
2022-12-09T04:16:15.909Z,13.50
2022-12-09T04:18:44.986Z,12.50
2022-12-09T04:21:15.124Z,12.80
2022-12-09T04:23:45.175Z,12.70
2022-12-09T04:26:15.788Z,13.60
2022-12-09T04:28:45.216Z,13.60
2022-12-09T04:31:14.753Z,13.47
2022-12-09T04:33:44.094Z,11.70
2022-12-09T04:36:14.796Z,12.93
2022-12-09T04:38:45.640Z,13.33
2022-12-09T04:41:14.787Z,13.63
2022-12-09T04:43:43.951Z,12.70
2022-12-09T04:46:15.334Z,12.27
2022-12-09T04:48:44.504Z,12.83
2022-12-09T04:51:14.464Z,12.40
2022-12-09T04:53:45.109Z,12.97
2022-12-09T04:56:15.870Z,12.97
2022-12-09T04:58:44.987Z,12.43
2022-12-09T05:01:17.680Z,13.67
2022-12-09T05:03:50.205Z,11.73
2022-12-09T05:06:20.614Z,14.13
2022-12-09T05:08:51.967Z,12.63
2022-12-09T05:11:25.028Z,13.27
2022-12-09T05:13:55.226Z,11.70
2022-12-09T05:16:24.085Z,12.40
2022-12-09T05:18:53.248Z,12.53
2022-12-09T05:21:22.627Z,13.33
2022-12-09T05:23:53.045Z,11.63
2022-12-09T05:26:23.559Z,12.87
2022-12-09T05:28:53.068Z,11.67
2022-12-09T05:31:23.857Z,12.77
2022-12-09T05:33:54.015Z,14.13
2022-12-09T05:36:25.420Z,12.90
2022-12-09T05:38:56.617Z,12.03
2022-12-09T05:41:26.072Z,13.67
2022-12-09T05:43:55.076Z,12.63
2022-12-09T05:46:24.248Z,12.73
2022-12-09T05:48:53.229Z,13.50
2022-12-09T05:51:25.635Z,13.23
2022-12-09T05:53:57.679Z,12.13
2022-12-09T05:56:26.788Z,13.17
2022-12-09T05:58:56.512Z,12.67
2022-12-09T06:01:25.946Z,12.23
2022-12-09T06:03:56.687Z,12.83
2022-12-09T06:06:28.120Z,12.73
2022-12-09T06:09:00.581Z,13.67
2022-12-09T06:11:29.934Z,13.37
2022-12-09T06:13:58.919Z,12.80
2022-12-09T06:16:27.510Z,14.37
2022-12-09T06:18:56.865Z,14.93
2022-12-09T06:21:25.522Z,15.30
2022-12-09T06:23:54.886Z,13.87
2022-12-09T06:26:27.783Z,16.07
2022-12-09T06:28:57.625Z,15.53
2022-12-09T06:31:26.738Z,14.10
2022-12-09T06:33:58.358Z,14.83
2022-12-09T06:36:29.173Z,14.63
2022-12-09T06:39:09.591Z,16.33
2022-12-09T06:41:42.391Z,16.50
2022-12-09T06:44:16.962Z,16.67
2022-12-09T06:46:50.449Z,16.43
2022-12-09T06:49:19.568Z,15.13
2022-12-09T06:51:48.679Z,14.77
2022-12-09T06:54:18.079Z,15.80
2022-12-09T06:56:48.435Z,16.23
2022-12-09T06:59:17.493Z,14.63
2022-12-09T07:01:46.875Z,16.37
2022-12-09T07:04:16.293Z,14.07
2022-12-09T07:06:47.094Z,12.90
2022-12-09T07:09:18.707Z,13.93
2022-12-09T07:11:49.640Z,14.87
2022-12-09T07:14:20.032Z,13.80
2022-12-09T07:16:49.007Z,14.40
2022-12-09T07:19:19.334Z,14.27
2022-12-09T07:21:48.663Z,15.63
2022-12-09T07:24:18.462Z,13.37
2022-12-09T07:26:49.253Z,14.37
2022-12-09T07:29:19.484Z,13.20
2022-12-09T07:31:48.869Z,14.30
2022-12-09T07:34:17.918Z,13.73
2022-12-09T07:36:47.569Z,12.20
2022-12-09T07:39:18.506Z,12.20
2022-12-09T07:41:52.141Z,14.63
2022-12-09T07:44:21.075Z,13.20
2022-12-09T07:46:50.007Z,13.00
2022-12-09T07:49:19.279Z,12.70
2022-12-09T07:51:48.330Z,11.97
2022-12-09T07:54:19.105Z,11.73
2022-12-09T07:56:48.955Z,12.93
2022-12-09T07:59:19.064Z,12.97
2022-12-09T08:01:47.942Z,12.13
2022-12-09T08:04:17.233Z,12.83
2022-12-09T08:06:46.428Z,12.73
2022-12-09T08:09:15.749Z,12.27
2022-12-09T08:11:44.484Z,12.60
2022-12-09T08:14:14.979Z,11.60
2022-12-09T08:16:44.745Z,11.97
2022-12-09T08:19:14.644Z,11.30
2022-12-09T08:21:45.538Z,13.20
2022-12-09T08:24:17.836Z,11.43
2022-12-09T08:26:46.541Z,13.03
2022-12-09T08:29:16.837Z,13.83
2022-12-09T08:31:45.990Z,11.63
2022-12-09T08:34:16.852Z,14.10
2022-12-09T08:36:45.919Z,12.67
2022-12-09T08:39:15.812Z,13.73
2022-12-09T08:41:45.529Z,12.43
2022-12-09T08:44:18.016Z,12.43
2022-12-09T08:46:48.525Z,11.83
2022-12-09T08:49:20.321Z,13.77
2022-12-09T08:51:50.983Z,12.13
2022-12-09T08:54:20.202Z,14.50
2022-12-09T08:56:51.422Z,13.07
2022-12-09T08:59:21.664Z,14.07
2022-12-09T09:01:51.370Z,12.97
2022-12-09T09:04:23.002Z,15.83
2022-12-09T09:06:53.001Z,14.03
2022-12-09T09:09:23.285Z,14.33
2022-12-09T09:11:52.650Z,14.10
2022-12-09T09:14:23.592Z,17.27
2022-12-09T09:16:52.784Z,16.67
2022-12-09T09:19:25.756Z,16.83
2022-12-09T09:21:55.511Z,13.93
2022-12-09T09:24:26.021Z,14.60
2022-12-09T09:26:55.423Z,16.50
2022-12-09T09:29:25.763Z,17.47
2022-12-09T09:31:56.298Z,16.30
2022-12-09T09:34:25.459Z,15.43
2022-12-09T09:36:54.939Z,17.93
2022-12-09T09:39:24.024Z,14.23
2022-12-09T09:41:54.535Z,16.17
2022-12-09T09:44:33.141Z,16.93
2022-12-09T09:47:04.507Z,17.10
2022-12-09T09:49:37.568Z,15.37
2022-12-09T09:52:10.262Z,17.77
2022-12-09T09:54:39.406Z,15.77
2022-12-09T09:57:15.847Z,16.73
2022-12-09T10:00:09.961Z,16.17
2022-12-09T10:02:55.737Z,14.43
2022-12-09T10:05:28.583Z,15.53
2022-12-09T10:08:16.336Z,16.20
2022-12-09T10:10:50.583Z,16.67
2022-12-09T10:13:31.095Z,15.37
2022-12-09T10:16:10.337Z,15.77
2022-12-09T10:18:48.921Z,15.47
2022-12-09T10:21:20.896Z,17.33
2022-12-09T10:23:51.914Z,17.70
2022-12-09T10:26:23.835Z,16.97
2022-12-09T10:28:59.420Z,16.63
2022-12-09T10:31:30.515Z,15.90
2022-12-09T10:33:59.739Z,16.90
2022-12-09T10:36:35.465Z,16.70
2022-12-09T10:39:06.210Z,19.30
2022-12-09T10:41:59.127Z,17.30
2022-12-09T10:44:29.058Z,17.50
2022-12-09T10:47:00.668Z,19.30
2022-12-09T10:49:30.474Z,18.17
2022-12-09T10:52:00.092Z,20.20
2022-12-09T10:54:34.420Z,19.00
2022-12-09T10:57:08.203Z,19.80
2022-12-09T10:59:38.157Z,19.50
2022-12-09T11:02:21.965Z,19.93
2022-12-09T11:04:51.555Z,21.33
2022-12-09T11:07:22.905Z,18.63
2022-12-09T11:10:04.205Z,20.70
2022-12-09T11:12:40.894Z,18.70
2022-12-09T11:15:29.467Z,19.27
2022-12-09T11:18:06.846Z,20.97
2022-12-09T11:20:37.691Z,21.87
2022-12-09T11:23:15.419Z,22.30
2022-12-09T11:25:55.651Z,21.47
2022-12-09T11:28:26.142Z,19.00
2022-12-09T11:31:27.760Z,18.20
2022-12-09T11:33:55.693Z,18.67
2022-12-09T11:36:30.686Z,19.23
2022-12-09T11:39:16.635Z,18.67
2022-12-09T11:42:10.120Z,18.43
2022-12-09T11:44:45.655Z,18.40
2022-12-09T11:47:21.792Z,17.00
2022-12-09T11:49:54.579Z,17.50
2022-12-09T11:52:29.479Z,16.60
2022-12-09T11:55:13.172Z,16.93
2022-12-09T11:57:47.404Z,16.60
2022-12-09T12:00:20.034Z,16.47
2022-12-09T12:02:55.209Z,17.37
2022-12-09T12:05:27.861Z,17.93
2022-12-09T12:08:09.763Z,16.83
2022-12-09T12:10:42.973Z,17.10
2022-12-09T12:13:17.636Z,15.77
2022-12-09T12:15:53.280Z,15.67
2022-12-09T12:18:24.354Z,14.53
2022-12-09T12:21:19.714Z,13.57
2022-12-09T12:24:14.369Z,14.07
2022-12-09T12:26:49.879Z,14.43
2022-12-09T12:29:31.930Z,14.43
2022-12-09T12:32:32.452Z,13.07
2022-12-09T12:35:22.149Z,11.63
2022-12-09T12:38:02.499Z,12.70
2022-12-09T12:40:40.826Z,11.73
2022-12-09T12:43:46.006Z,10.83
2022-12-09T12:46:38.739Z,10.33
2022-12-09T12:49:24.338Z,11.53
2022-12-09T12:52:04.373Z,10.80
2022-12-09T12:54:46.736Z,12.20
2022-12-09T12:57:22.871Z,12.03
2022-12-09T12:59:59.456Z,12.67
2022-12-09T13:02:40.134Z,11.63
2022-12-09T13:05:18.887Z,11.23
2022-12-09T13:07:52.840Z,13.00
2022-12-09T13:10:28.956Z,12.80
2022-12-09T13:13:01.630Z,10.77
2022-12-09T13:15:34.777Z,11.93
2022-12-09T13:18:08.602Z,10.73
2022-12-09T13:20:53.870Z,11.17
2022-12-09T13:23:33.851Z,11.37
2022-12-09T13:26:19.034Z,11.83
2022-12-09T13:28:53.319Z,10.70
2022-12-09T13:31:28.228Z,11.03
2022-12-09T13:34:09.108Z,11.40
2022-12-09T13:36:41.662Z,11.40
2022-12-09T13:39:12.431Z,11.77
2022-12-09T13:42:04.171Z,11.37
2022-12-09T13:44:37.372Z,11.40
2022-12-09T13:47:29.396Z,11.93
2022-12-09T13:50:01.875Z,10.90
2022-12-09T13:52:49.805Z,11.47
2022-12-09T13:55:36.827Z,11.33
2022-12-09T13:58:36.520Z,11.93
2022-12-09T14:01:17.314Z,9.70
2022-12-09T14:04:03.179Z,9.40
2022-12-09T14:06:34.638Z,13.73
2022-12-09T14:09:07.847Z,11.40
2022-12-09T14:11:48.316Z,12.90
2022-12-09T14:14:52.200Z,12.07
2022-12-09T14:18:02.609Z,12.97
2022-12-09T14:20:36.281Z,11.43
2022-12-09T14:23:14.717Z,12.23
2022-12-09T14:25:59.295Z,13.53
2022-12-09T14:28:59.262Z,13.20
2022-12-09T14:31:59.271Z,13.83
2022-12-09T14:34:37.502Z,14.30
2022-12-09T14:37:41.566Z,15.83
2022-12-09T14:40:46.808Z,14.53
2022-12-09T14:44:00.530Z,15.63
2022-12-09T14:46:32.798Z,18.03
2022-12-09T14:49:06.085Z,17.33
2022-12-09T14:51:38.080Z,17.63
2022-12-09T14:54:14.409Z,38.63
2022-12-09T14:56:48.051Z,20.70
2022-12-09T14:59:19.986Z,21.23
2022-12-09T15:01:56.113Z,22.30
2022-12-09T15:04:27.887Z,21.23
2022-12-09T15:07:15.319Z,22.73
2022-12-09T15:09:52.647Z,23.00
2022-12-09T15:12:24.163Z,22.47
2022-12-09T15:14:58.691Z,23.70
2022-12-09T15:17:30.975Z,22.27
2022-12-09T15:20:12.058Z,23.70
2022-12-09T15:22:41.030Z,24.07
2022-12-09T15:25:19.114Z,21.23
2022-12-09T15:27:57.036Z,23.13
2022-12-09T15:30:30.023Z,22.53
2022-12-09T15:32:58.697Z,22.47
2022-12-09T15:35:29.139Z,22.20
2022-12-09T15:38:01.915Z,21.97
2022-12-09T15:40:33.293Z,20.53
2022-12-09T15:43:05.183Z,21.43
2022-12-09T15:45:36.558Z,20.07
2022-12-09T15:48:11.356Z,19.20
2022-12-09T15:50:44.928Z,18.60
2022-12-09T15:53:18.829Z,17.73
2022-12-09T15:55:52.347Z,18.23
2022-12-09T15:58:24.603Z,18.10
2022-12-09T16:00:54.723Z,18.23
2022-12-09T16:03:27.405Z,19.27
2022-12-09T16:05:57.626Z,19.03
2022-12-09T16:08:34.061Z,18.73
2022-12-09T16:11:04.471Z,19.97
2022-12-09T16:13:33.281Z,18.53
2022-12-09T16:16:03.833Z,18.77
2022-12-09T16:18:35.737Z,19.27
2022-12-09T16:21:27.156Z,19.80
2022-12-09T16:24:05.742Z,18.87
2022-12-09T16:26:37.941Z,18.67
2022-12-09T16:29:09.007Z,17.93
2022-12-09T16:31:37.959Z,19.83
2022-12-09T16:34:07.203Z,19.63
2022-12-09T16:36:35.481Z,20.13
2022-12-09T16:39:34.555Z,18.60
2022-12-09T16:42:04.395Z,18.70
2022-12-09T16:44:35.267Z,19.57
2022-12-09T16:47:16.216Z,21.13
2022-12-09T16:49:47.982Z,19.30
2022-12-09T16:52:17.964Z,21.70
2022-12-09T16:54:48.509Z,18.87
2022-12-09T16:57:20.823Z,21.80
2022-12-09T16:59:51.067Z,20.87
2022-12-09T17:02:25.078Z,20.93
2022-12-09T17:04:53.947Z,17.57
2022-12-09T17:07:22.250Z,18.93
2022-12-09T17:09:50.924Z,17.97
2022-12-09T17:12:20.957Z,17.43
2022-12-09T17:14:49.978Z,20.83
2022-12-09T17:17:18.581Z,17.97
2022-12-09T17:19:47.588Z,18.07
2022-12-09T17:22:18.266Z,17.37
2022-12-09T17:24:47.037Z,18.37
2022-12-09T17:27:15.999Z,21.20
2022-12-09T17:29:46.662Z,19.87
2022-12-09T17:32:15.843Z,20.67
2022-12-09T17:34:44.652Z,18.60
2022-12-09T17:37:13.439Z,20.47
2022-12-09T17:39:42.332Z,20.60
2022-12-09T17:42:10.716Z,20.97
2022-12-09T17:44:39.548Z,23.80
2022-12-09T17:47:09.625Z,30.03
2022-12-09T17:49:38.271Z,30.20
2022-12-09T17:52:06.881Z,31.13
2022-12-09T17:54:35.572Z,29.27
2022-12-09T17:57:03.907Z,27.27
2022-12-09T17:59:32.465Z,29.33
2022-12-09T18:02:03.623Z,25.40
2022-12-09T18:04:34.261Z,26.50
2022-12-09T18:07:02.953Z,26.23
2022-12-09T18:09:31.784Z,25.57
2022-12-09T18:12:00.077Z,22.77
2022-12-09T18:14:29.261Z,24.13
2022-12-09T18:16:57.757Z,21.63
2022-12-09T18:19:26.493Z,23.17
2022-12-09T18:21:57.284Z,20.50
2022-12-09T18:24:26.069Z,22.60
2022-12-09T18:26:54.505Z,21.13
2022-12-09T18:29:23.916Z,22.43
2022-12-09T18:31:55.891Z,20.57
2022-12-09T18:34:24.929Z,19.43
2022-12-09T18:36:53.270Z,20.80
2022-12-09T18:39:23.559Z,21.43
2022-12-09T18:41:51.927Z,18.43
2022-12-09T18:44:20.931Z,20.60
2022-12-09T18:46:51.495Z,22.03
2022-12-09T18:49:22.256Z,27.87
2022-12-09T18:51:52.577Z,21.90
2022-12-09T18:54:26.703Z,22.63
2022-12-09T18:56:55.563Z,22.93
2022-12-09T18:59:25.601Z,22.53
2022-12-09T19:01:54.461Z,22.37
2022-12-09T19:04:24.896Z,20.77
2022-12-09T19:06:55.546Z,18.27
2022-12-09T19:09:28.718Z,20.17
2022-12-09T19:11:58.181Z,20.73
2022-12-09T19:14:42.377Z,18.60
2022-12-09T19:17:10.764Z,20.23
2022-12-09T19:19:39.571Z,20.07
2022-12-09T19:22:08.283Z,22.57
2022-12-09T19:24:42.849Z,20.03
2022-12-09T19:27:13.706Z,21.73
2022-12-09T19:29:42.299Z,20.97
2022-12-09T19:32:36.317Z,21.33
2022-12-09T19:34:59.359Z,20.20
2022-12-09T19:37:27.616Z,19.27
2022-12-09T19:39:57.492Z,20.17
2022-12-09T19:42:25.908Z,22.43
2022-12-09T19:45:03.647Z,21.97
2022-12-09T19:47:33.827Z,20.77
2022-12-09T19:50:02.346Z,22.40
2022-12-09T19:52:30.808Z,21.07
2022-12-09T19:55:00.923Z,20.37
2022-12-09T19:57:29.513Z,21.80
2022-12-09T19:59:58.333Z,21.23
2022-12-09T20:02:26.869Z,21.90
2022-12-09T20:04:56.229Z,21.60
2022-12-09T20:07:24.837Z,20.63
2022-12-09T20:09:53.607Z,22.00
2022-12-09T20:12:23.625Z,20.27
2022-12-09T20:14:52.312Z,19.30
2022-12-09T20:17:20.803Z,20.77
2022-12-09T20:19:49.575Z,20.87
2022-12-09T20:22:18.053Z,19.50
2022-12-09T20:24:46.590Z,21.77
2022-12-09T20:27:15.436Z,21.77
2022-12-09T20:29:46.086Z,23.87
2022-12-09T20:32:14.477Z,22.23
2022-12-09T20:34:43.155Z,21.23
2022-12-09T20:37:11.614Z,18.90
2022-12-09T20:39:40.331Z,20.93
2022-12-09T20:42:08.571Z,19.43
2022-12-09T20:44:37.158Z,20.50
2022-12-09T20:47:06.992Z,21.07
2022-12-09T20:49:35.538Z,20.50
2022-12-09T20:52:03.776Z,22.07
2022-12-09T20:54:32.428Z,21.50
2022-12-09T20:57:01.099Z,21.50
2022-12-09T20:59:29.746Z,22.37
2022-12-09T21:01:58.347Z,22.23
2022-12-09T21:04:28.356Z,22.30
2022-12-09T21:06:56.711Z,20.83
2022-12-09T21:09:27.270Z,22.87
2022-12-09T21:11:55.626Z,22.73
2022-12-09T21:14:29.533Z,24.10
2022-12-09T21:17:00.961Z,22.40
2022-12-09T21:19:32.529Z,22.43
2022-12-09T21:22:00.983Z,19.87
2022-12-09T21:24:30.164Z,22.80
2022-12-09T21:26:58.672Z,23.10
2022-12-09T21:29:32.146Z,20.63
2022-12-09T21:32:02.387Z,23.40
2022-12-09T21:34:32.728Z,21.57
2022-12-09T21:37:02.102Z,19.33
2022-12-09T21:39:30.910Z,23.13
2022-12-09T21:41:59.612Z,21.23
2022-12-09T21:44:28.387Z,20.70
2022-12-09T21:46:56.970Z,21.30
2022-12-09T21:49:25.726Z,21.57
2022-12-09T21:51:55.344Z,22.00
2022-12-09T21:54:24.131Z,21.97
2022-12-09T21:56:52.599Z,21.47
2022-12-09T21:59:22.299Z,21.70
2022-12-09T22:01:50.649Z,20.17
2022-12-09T22:04:19.900Z,21.10
2022-12-09T22:06:50.478Z,22.30
2022-12-09T22:09:21.677Z,22.23
2022-12-09T22:11:50.066Z,20.40
2022-12-09T22:14:19.077Z,20.63
2022-12-09T22:16:47.604Z,18.90
2022-12-09T22:19:19.567Z,20.20
2022-12-09T22:21:48.665Z,19.87
2022-12-09T22:24:18.598Z,20.40
2022-12-09T22:26:49.314Z,20.97
2022-12-09T22:29:18.936Z,21.20
2022-12-09T22:31:47.753Z,19.67
2022-12-09T22:34:18.637Z,18.77
2022-12-09T22:36:48.080Z,20.37
2022-12-09T22:39:18.781Z,21.40
2022-12-09T22:41:49.422Z,22.10
2022-12-09T22:44:19.678Z,20.73
2022-12-09T22:46:48.668Z,24.50
2022-12-09T22:49:17.732Z,22.97
2022-12-09T22:51:46.659Z,23.47
2022-12-09T22:54:15.617Z,22.57
2022-12-09T22:56:45.047Z,23.10
2022-12-09T22:59:15.856Z,21.70
2022-12-09T23:01:46.477Z,22.23
2022-12-09T23:04:17.019Z,22.70
2022-12-09T23:06:45.937Z,20.90
2022-12-09T23:09:16.229Z,22.57
2022-12-09T23:11:44.554Z,20.83
2022-12-09T23:14:14.833Z,22.23
2022-12-09T23:16:43.337Z,23.70
2022-12-09T23:19:13.866Z,22.80
2022-12-09T23:21:43.570Z,22.27
2022-12-09T23:24:16.431Z,20.70
2022-12-09T23:27:03.403Z,20.47
2022-12-09T23:29:33.684Z,22.70
2022-12-09T23:32:02.106Z,21.73
2022-12-09T23:34:30.776Z,20.10
2022-12-09T23:36:59.154Z,22.50
2022-12-09T23:39:28.080Z,22.00
2022-12-09T23:41:56.735Z,20.60
2022-12-09T23:44:25.533Z,20.93
2022-12-09T23:46:55.265Z,24.70
2022-12-09T23:49:23.974Z,22.73
2022-12-09T23:51:52.265Z,19.60
2022-12-09T23:54:21.649Z,20.57
2022-12-09T23:56:50.864Z,21.10
2022-12-09T23:59:21.681Z,21.30
